sensor_id;sensor_type;location;lat;lon;timestamp;P1;durP1;ratioP1;P2;durP2;ratioP2
17921;SDS011;9086;50.966;3.144;2023-08-06T00:00:19;14.60;;;13.80;;
17921;SDS011;9086;50.966;3.144;2023-08-06T00:02:45;14.70;;;13.73;;
17921;SDS011;9086;50.966;3.144;2023-08-06T00:05:11;12.67;;;11.63;;
17921;SDS011;9086;50.966;3.144;2023-08-06T00:07:37;9.63;;;8.93;;
17921;SDS011;9086;50.966;3.144;2023-08-06T00:10:03;10.17;;;9.33;;
17921;SDS011;9086;50.966;3.144;2023-08-06T00:12:29;8.63;;;8.13;;
17921;SDS011;9086;50.966;3.144;2023-08-06T00:14:55;7.77;;;7.17;;
17921;SDS011;9086;50.966;3.144;2023-08-06T00:17:21;7.83;;;7.23;;
17921;SDS011;9086;50.966;3.144;2023-08-06T00:19:47;6.70;;;6.23;;
17921;SDS011;9086;50.966;3.144;2023-08-06T00:22:13;6.53;;;6.00;;
17921;SDS011;9086;50.966;3.144;2023-08-06T00:24:39;7.23;;;6.83;;
17921;SDS011;9086;50.966;3.144;2023-08-06T00:27:05;6.57;;;6.27;;
17921;SDS011;9086;50.966;3.144;2023-08-06T00:29:31;6.70;;;6.07;;
17921;SDS011;9086;50.966;3.144;2023-08-06T00:31:57;6.73;;;6.07;;
17921;SDS011;9086;50.966;3.144;2023-08-06T00:34:23;7.07;;;6.03;;
17921;SDS011;9086;50.966;3.144;2023-08-06T00:36:49;9.73;;;6.73;;
17921;SDS011;9086;50.966;3.144;2023-08-06T00:39:15;6.97;;;6.30;;
17921;SDS011;9086;50.966;3.144;2023-08-06T00:41:41;6.93;;;6.43;;
17921;SDS011;9086;50.966;3.144;2023-08-06T00:44:07;7.20;;;6.70;;
17921;SDS011;9086;50.966;3.144;2023-08-06T00:46:34;8.73;;;8.10;;
17921;SDS011;9086;50.966;3.144;2023-08-06T00:49:00;7.87;;;7.37;;
17921;SDS011;9086;50.966;3.144;2023-08-06T00:51:26;8.00;;;7.37;;
17921;SDS011;9086;50.966;3.144;2023-08-06T00:53:52;8.73;;;8.17;;
17921;SDS011;9086;50.966;3.144;2023-08-06T00:56:19;9.13;;;8.63;;
17921;SDS011;9086;50.966;3.144;2023-08-06T00:58:45;10.23;;;9.73;;
17921;SDS011;9086;50.966;3.144;2023-08-06T01:01:12;10.30;;;9.67;;
17921;SDS011;9086;50.966;3.144;2023-08-06T01:03:38;11.20;;;10.20;;
17921;SDS011;9086;50.966;3.144;2023-08-06T01:06:04;11.47;;;10.87;;
17921;SDS011;9086;50.966;3.144;2023-08-06T01:13:33;14.47;;;13.67;;
17921;SDS011;9086;50.966;3.144;2023-08-06T01:16:03;16.03;;;14.90;;
17921;SDS011;9086;50.966;3.144;2023-08-06T01:18:30;17.63;;;16.40;;
17921;SDS011;9086;50.966;3.144;2023-08-06T01:20:56;17.43;;;16.00;;
17921;SDS011;9086;50.966;3.144;2023-08-06T01:23:22;20.53;;;19.40;;
17921;SDS011;9086;50.966;3.144;2023-08-06T01:25:55;22.47;;;21.43;;
17921;SDS011;9086;50.966;3.144;2023-08-06T01:28:23;26.33;;;24.77;;
17921;SDS011;9086;50.966;3.144;2023-08-06T01:30:53;29.43;;;27.87;;
17921;SDS011;9086;50.966;3.144;2023-08-06T01:33:21;24.43;;;22.87;;
17921;SDS011;9086;50.966;3.144;2023-08-06T01:35:47;25.43;;;24.03;;
17921;SDS011;9086;50.966;3.144;2023-08-06T01:38:15;23.77;;;22.23;;
17921;SDS011;9086;50.966;3.144;2023-08-06T01:40:41;17.20;;;16.40;;
17921;SDS011;9086;50.966;3.144;2023-08-06T01:43:07;18.43;;;17.43;;
17921;SDS011;9086;50.966;3.144;2023-08-06T01:45:33;19.33;;;18.23;;
17921;SDS011;9086;50.966;3.144;2023-08-06T01:47:59;23.33;;;21.53;;
17921;SDS011;9086;50.966;3.144;2023-08-06T01:50:25;20.37;;;18.97;;
17921;SDS011;9086;50.966;3.144;2023-08-06T01:52:51;22.27;;;20.63;;
17921;SDS011;9086;50.966;3.144;2023-08-06T01:55:17;23.60;;;21.97;;
17921;SDS011;9086;50.966;3.144;2023-08-06T01:57:43;22.93;;;21.73;;
17921;SDS011;9086;50.966;3.144;2023-08-06T02:00:10;22.60;;;21.23;;
17921;SDS011;9086;50.966;3.144;2023-08-06T02:02:36;23.43;;;22.20;;
17921;SDS011;9086;50.966;3.144;2023-08-06T02:05:02;24.93;;;23.10;;
17921;SDS011;9086;50.966;3.144;2023-08-06T02:07:29;28.03;;;26.33;;
17921;SDS011;9086;50.966;3.144;2023-08-06T02:09:54;34.67;;;32.87;;
17921;SDS011;9086;50.966;3.144;2023-08-06T02:12:20;33.13;;;31.47;;
17921;SDS011;9086;50.966;3.144;2023-08-06T02:14:46;31.27;;;29.67;;
17921;SDS011;9086;50.966;3.144;2023-08-06T02:17:12;34.30;;;32.47;;
17921;SDS011;9086;50.966;3.144;2023-08-06T02:19:39;36.47;;;34.57;;
17921;SDS011;9086;50.966;3.144;2023-08-06T02:22:05;37.13;;;35.00;;
17921;SDS011;9086;50.966;3.144;2023-08-06T02:24:31;43.70;;;41.23;;
17921;SDS011;9086;50.966;3.144;2023-08-06T02:26:57;44.43;;;42.00;;
17921;SDS011;9086;50.966;3.144;2023-08-06T02:29:23;44.00;;;41.07;;
17921;SDS011;9086;50.966;3.144;2023-08-06T02:31:49;44.97;;;42.37;;
17921;SDS011;9086;50.966;3.144;2023-08-06T02:34:15;42.43;;;40.17;;
17921;SDS011;9086;50.966;3.144;2023-08-06T02:36:41;43.83;;;41.73;;
17921;SDS011;9086;50.966;3.144;2023-08-06T02:39:07;46.93;;;44.43;;
17921;SDS011;9086;50.966;3.144;2023-08-06T02:41:33;49.30;;;47.00;;
17921;SDS011;9086;50.966;3.144;2023-08-06T02:43:59;45.87;;;43.47;;
17921;SDS011;9086;50.966;3.144;2023-08-06T02:46:25;52.43;;;49.83;;
17921;SDS011;9086;50.966;3.144;2023-08-06T02:48:51;51.57;;;49.20;;
17921;SDS011;9086;50.966;3.144;2023-08-06T02:51:17;53.97;;;50.80;;
17921;SDS011;9086;50.966;3.144;2023-08-06T02:53:43;47.87;;;45.03;;
17921;SDS011;9086;50.966;3.144;2023-08-06T02:56:09;48.53;;;46.20;;
17921;SDS011;9086;50.966;3.144;2023-08-06T02:58:35;43.37;;;41.03;;
17921;SDS011;9086;50.966;3.144;2023-08-06T03:01:01;43.63;;;41.47;;
17921;SDS011;9086;50.966;3.144;2023-08-06T03:03:28;40.30;;;38.27;;
17921;SDS011;9086;50.966;3.144;2023-08-06T03:05:54;41.70;;;39.47;;
17921;SDS011;9086;50.966;3.144;2023-08-06T03:08:21;36.87;;;35.00;;
17921;SDS011;9086;50.966;3.144;2023-08-06T03:10:48;35.57;;;33.07;;
17921;SDS011;9086;50.966;3.144;2023-08-06T03:13:14;36.10;;;34.27;;
17921;SDS011;9086;50.966;3.144;2023-08-06T03:15:40;33.20;;;31.30;;
17921;SDS011;9086;50.966;3.144;2023-08-06T03:18:06;32.33;;;30.30;;
17921;SDS011;9086;50.966;3.144;2023-08-06T03:20:32;30.97;;;29.33;;
17921;SDS011;9086;50.966;3.144;2023-08-06T03:22:58;27.23;;;25.57;;
17921;SDS011;9086;50.966;3.144;2023-08-06T03:25:24;26.57;;;24.77;;
17921;SDS011;9086;50.966;3.144;2023-08-06T03:27:50;23.50;;;21.93;;
17921;SDS011;9086;50.966;3.144;2023-08-06T03:30:17;25.63;;;24.07;;
17921;SDS011;9086;50.966;3.144;2023-08-06T03:32:43;22.70;;;21.10;;
17921;SDS011;9086;50.966;3.144;2023-08-06T03:35:09;22.27;;;20.37;;
17921;SDS011;9086;50.966;3.144;2023-08-06T03:37:35;23.73;;;21.97;;
17921;SDS011;9086;50.966;3.144;2023-08-06T03:40:01;22.43;;;20.50;;
17921;SDS011;9086;50.966;3.144;2023-08-06T03:42:28;24.77;;;23.07;;
17921;SDS011;9086;50.966;3.144;2023-08-06T03:44:54;23.87;;;21.90;;
17921;SDS011;9086;50.966;3.144;2023-08-06T03:47:20;21.97;;;20.67;;
17921;SDS011;9086;50.966;3.144;2023-08-06T03:49:46;21.53;;;19.90;;
17921;SDS011;9086;50.966;3.144;2023-08-06T03:52:12;20.27;;;18.83;;
17921;SDS011;9086;50.966;3.144;2023-08-06T03:54:38;19.10;;;17.57;;
17921;SDS011;9086;50.966;3.144;2023-08-06T03:57:04;17.17;;;15.67;;
17921;SDS011;9086;50.966;3.144;2023-08-06T03:59:30;18.13;;;16.73;;
17921;SDS011;9086;50.966;3.144;2023-08-06T04:01:56;19.90;;;18.47;;
17921;SDS011;9086;50.966;3.144;2023-08-06T04:04:22;18.23;;;16.93;;
17921;SDS011;9086;50.966;3.144;2023-08-06T04:06:48;18.17;;;16.43;;
17921;SDS011;9086;50.966;3.144;2023-08-06T04:09:14;17.50;;;16.23;;
17921;SDS011;9086;50.966;3.144;2023-08-06T04:11:40;15.47;;;14.03;;
17921;SDS011;9086;50.966;3.144;2023-08-06T04:14:06;13.57;;;12.17;;
17921;SDS011;9086;50.966;3.144;2023-08-06T04:16:32;13.87;;;11.77;;
17921;SDS011;9086;50.966;3.144;2023-08-06T04:18:58;12.13;;;10.57;;
17921;SDS011;9086;50.966;3.144;2023-08-06T04:21:24;12.53;;;11.30;;
17921;SDS011;9086;50.966;3.144;2023-08-06T04:23:50;12.03;;;10.37;;
17921;SDS011;9086;50.966;3.144;2023-08-06T04:26:16;9.40;;;8.47;;
17921;SDS011;9086;50.966;3.144;2023-08-06T04:28:43;13.00;;;8.07;;
17921;SDS011;9086;50.966;3.144;2023-08-06T04:31:09;8.93;;;7.07;;
17921;SDS011;9086;50.966;3.144;2023-08-06T04:33:35;7.10;;;6.23;;
17921;SDS011;9086;50.966;3.144;2023-08-06T04:36:01;8.07;;;6.13;;
17921;SDS011;9086;50.966;3.144;2023-08-06T04:38:27;12.10;;;6.63;;
17921;SDS011;9086;50.966;3.144;2023-08-06T04:40:53;8.40;;;5.17;;
17921;SDS011;9086;50.966;3.144;2023-08-06T04:43:19;8.77;;;5.10;;
17921;SDS011;9086;50.966;3.144;2023-08-06T04:45:46;10.63;;;6.13;;
17921;SDS011;9086;50.966;3.144;2023-08-06T04:48:12;7.60;;;5.57;;
17921;SDS011;9086;50.966;3.144;2023-08-06T04:50:42;8.10;;;5.40;;
17921;SDS011;9086;50.966;3.144;2023-08-06T04:53:08;6.77;;;4.67;;
17921;SDS011;9086;50.966;3.144;2023-08-06T04:55:34;8.47;;;4.43;;
17921;SDS011;9086;50.966;3.144;2023-08-06T04:58:00;9.07;;;4.40;;
17921;SDS011;9086;50.966;3.144;2023-08-06T05:00:26;6.50;;;4.47;;
17921;SDS011;9086;50.966;3.144;2023-08-06T05:02:52;9.87;;;4.60;;
17921;SDS011;9086;50.966;3.144;2023-08-06T05:05:18;6.63;;;4.07;;
17921;SDS011;9086;50.966;3.144;2023-08-06T05:07:45;6.87;;;3.50;;
17921;SDS011;9086;50.966;3.144;2023-08-06T05:10:11;6.57;;;3.40;;
17921;SDS011;9086;50.966;3.144;2023-08-06T05:12:37;7.83;;;3.27;;
17921;SDS011;9086;50.966;3.144;2023-08-06T05:15:03;6.67;;;3.10;;
17921;SDS011;9086;50.966;3.144;2023-08-06T05:17:29;7.27;;;3.00;;
17921;SDS011;9086;50.966;3.144;2023-08-06T05:19:55;9.03;;;3.20;;
17921;SDS011;9086;50.966;3.144;2023-08-06T05:22:21;6.40;;;2.70;;
17921;SDS011;9086;50.966;3.144;2023-08-06T05:24:47;6.67;;;2.53;;
17921;SDS011;9086;50.966;3.144;2023-08-06T05:27:13;4.80;;;2.60;;
17921;SDS011;9086;50.966;3.144;2023-08-06T05:29:39;7.70;;;3.10;;
17921;SDS011;9086;50.966;3.144;2023-08-06T05:32:05;7.33;;;2.60;;
17921;SDS011;9086;50.966;3.144;2023-08-06T05:34:32;6.73;;;2.83;;
17921;SDS011;9086;50.966;3.144;2023-08-06T05:36:58;8.43;;;2.80;;
17921;SDS011;9086;50.966;3.144;2023-08-06T05:39:24;5.80;;;2.93;;
17921;SDS011;9086;50.966;3.144;2023-08-06T05:41:50;8.37;;;3.27;;
17921;SDS011;9086;50.966;3.144;2023-08-06T05:44:17;8.70;;;3.60;;
17921;SDS011;9086;50.966;3.144;2023-08-06T05:46:43;7.53;;;3.53;;
17921;SDS011;9086;50.966;3.144;2023-08-06T05:49:09;8.10;;;3.70;;
17921;SDS011;9086;50.966;3.144;2023-08-06T05:51:37;6.73;;;4.40;;
17921;SDS011;9086;50.966;3.144;2023-08-06T05:54:03;9.83;;;3.87;;
17921;SDS011;9086;50.966;3.144;2023-08-06T05:56:29;9.47;;;4.07;;
17921;SDS011;9086;50.966;3.144;2023-08-06T05:58:55;4.80;;;4.30;;
17921;SDS011;9086;50.966;3.144;2023-08-06T06:01:21;7.07;;;3.53;;
17921;SDS011;9086;50.966;3.144;2023-08-06T06:03:48;7.77;;;3.40;;
17921;SDS011;9086;50.966;3.144;2023-08-06T06:06:14;6.97;;;4.17;;
17921;SDS011;9086;50.966;3.144;2023-08-06T06:08:41;5.40;;;4.10;;
17921;SDS011;9086;50.966;3.144;2023-08-06T06:11:07;8.17;;;3.60;;
17921;SDS011;9086;50.966;3.144;2023-08-06T06:13:33;9.60;;;3.83;;
17921;SDS011;9086;50.966;3.144;2023-08-06T06:15:59;6.80;;;3.80;;
17921;SDS011;9086;50.966;3.144;2023-08-06T06:18:25;8.13;;;3.90;;
17921;SDS011;9086;50.966;3.144;2023-08-06T06:20:51;8.33;;;3.67;;
17921;SDS011;9086;50.966;3.144;2023-08-06T06:23:17;6.30;;;3.43;;
17921;SDS011;9086;50.966;3.144;2023-08-06T06:25:44;6.93;;;3.17;;
17921;SDS011;9086;50.966;3.144;2023-08-06T06:28:12;6.73;;;3.10;;
17921;SDS011;9086;50.966;3.144;2023-08-06T06:30:38;8.83;;;3.20;;
17921;SDS011;9086;50.966;3.144;2023-08-06T06:33:04;6.17;;;3.00;;
17921;SDS011;9086;50.966;3.144;2023-08-06T06:35:30;10.10;;;2.90;;
17921;SDS011;9086;50.966;3.144;2023-08-06T06:37:56;6.43;;;2.63;;
17921;SDS011;9086;50.966;3.144;2023-08-06T06:40:22;4.40;;;3.07;;
17921;SDS011;9086;50.966;3.144;2023-08-06T06:42:48;6.13;;;2.73;;
17921;SDS011;9086;50.966;3.144;2023-08-06T06:45:14;3.93;;;2.97;;
17921;SDS011;9086;50.966;3.144;2023-08-06T06:47:40;9.23;;;3.13;;
17921;SDS011;9086;50.966;3.144;2023-08-06T06:50:07;5.87;;;2.80;;
17921;SDS011;9086;50.966;3.144;2023-08-06T06:52:33;5.93;;;2.63;;
17921;SDS011;9086;50.966;3.144;2023-08-06T06:54:59;8.50;;;3.00;;
17921;SDS011;9086;50.966;3.144;2023-08-06T06:57:25;8.00;;;3.27;;
17921;SDS011;9086;50.966;3.144;2023-08-06T06:59:51;5.63;;;2.83;;
17921;SDS011;9086;50.966;3.144;2023-08-06T07:02:17;5.10;;;2.47;;
17921;SDS011;9086;50.966;3.144;2023-08-06T07:04:43;5.00;;;2.43;;
17921;SDS011;9086;50.966;3.144;2023-08-06T07:07:09;6.20;;;2.20;;
17921;SDS011;9086;50.966;3.144;2023-08-06T07:09:35;5.43;;;1.97;;
17921;SDS011;9086;50.966;3.144;2023-08-06T07:12:01;3.87;;;1.93;;
17921;SDS011;9086;50.966;3.144;2023-08-06T07:14:28;8.13;;;2.73;;
17921;SDS011;9086;50.966;3.144;2023-08-06T07:16:54;5.03;;;2.23;;
17921;SDS011;9086;50.966;3.144;2023-08-06T07:19:20;3.97;;;1.73;;
17921;SDS011;9086;50.966;3.144;2023-08-06T07:21:46;6.40;;;2.17;;
17921;SDS011;9086;50.966;3.144;2023-08-06T07:24:12;5.00;;;2.00;;
17921;SDS011;9086;50.966;3.144;2023-08-06T07:26:38;12.33;;;3.03;;
17921;SDS011;9086;50.966;3.144;2023-08-06T07:29:04;6.83;;;2.00;;
17921;SDS011;9086;50.966;3.144;2023-08-06T07:31:30;6.93;;;2.10;;
17921;SDS011;9086;50.966;3.144;2023-08-06T07:33:56;8.20;;;2.70;;
17921;SDS011;9086;50.966;3.144;2023-08-06T07:36:22;10.67;;;2.43;;
17921;SDS011;9086;50.966;3.144;2023-08-06T07:38:49;10.27;;;2.23;;
17921;SDS011;9086;50.966;3.144;2023-08-06T07:41:22;8.80;;;2.63;;
17921;SDS011;9086;50.966;3.144;2023-08-06T07:43:48;6.13;;;2.33;;
17921;SDS011;9086;50.966;3.144;2023-08-06T07:46:14;6.07;;;1.80;;
17921;SDS011;9086;50.966;3.144;2023-08-06T07:48:40;9.67;;;2.70;;
17921;SDS011;9086;50.966;3.144;2023-08-06T07:51:06;6.57;;;2.13;;
17921;SDS011;9086;50.966;3.144;2023-08-06T07:53:32;9.33;;;2.30;;
17921;SDS011;9086;50.966;3.144;2023-08-06T07:55:58;4.37;;;2.00;;
17921;SDS011;9086;50.966;3.144;2023-08-06T07:58:27;7.20;;;2.43;;
17921;SDS011;9086;50.966;3.144;2023-08-06T08:00:54;5.80;;;2.30;;
17921;SDS011;9086;50.966;3.144;2023-08-06T08:03:20;4.63;;;2.00;;
17921;SDS011;9086;50.966;3.144;2023-08-06T08:05:46;3.57;;;2.17;;
17921;SDS011;9086;50.966;3.144;2023-08-06T08:08:13;5.10;;;2.07;;
17921;SDS011;9086;50.966;3.144;2023-08-06T08:10:39;6.53;;;2.73;;
17921;SDS011;9086;50.966;3.144;2023-08-06T08:13:05;6.20;;;2.07;;
17921;SDS011;9086;50.966;3.144;2023-08-06T08:15:31;5.97;;;2.67;;
17921;SDS011;9086;50.966;3.144;2023-08-06T08:17:58;5.80;;;1.90;;
17921;SDS011;9086;50.966;3.144;2023-08-06T08:20:24;7.03;;;2.20;;
17921;SDS011;9086;50.966;3.144;2023-08-06T08:22:56;5.10;;;2.00;;
17921;SDS011;9086;50.966;3.144;2023-08-06T08:25:22;6.70;;;2.00;;
17921;SDS011;9086;50.966;3.144;2023-08-06T08:27:48;6.63;;;2.37;;
17921;SDS011;9086;50.966;3.144;2023-08-06T08:30:14;5.03;;;1.87;;
17921;SDS011;9086;50.966;3.144;2023-08-06T08:32:40;5.33;;;2.23;;
17921;SDS011;9086;50.966;3.144;2023-08-06T08:35:06;5.17;;;2.23;;
17921;SDS011;9086;50.966;3.144;2023-08-06T08:37:32;4.03;;;1.67;;
17921;SDS011;9086;50.966;3.144;2023-08-06T08:39:58;5.97;;;2.10;;
17921;SDS011;9086;50.966;3.144;2023-08-06T08:42:25;5.47;;;2.30;;
17921;SDS011;9086;50.966;3.144;2023-08-06T08:44:52;6.33;;;2.40;;
17921;SDS011;9086;50.966;3.144;2023-08-06T08:47:19;7.13;;;1.93;;
17921;SDS011;9086;50.966;3.144;2023-08-06T08:49:45;8.50;;;2.20;;
17921;SDS011;9086;50.966;3.144;2023-08-06T08:52:12;5.17;;;2.20;;
17921;SDS011;9086;50.966;3.144;2023-08-06T08:54:39;4.47;;;1.80;;
17921;SDS011;9086;50.966;3.144;2023-08-06T08:57:06;5.33;;;2.10;;
17921;SDS011;9086;50.966;3.144;2023-08-06T08:59:33;7.17;;;2.10;;
17921;SDS011;9086;50.966;3.144;2023-08-06T09:02:00;6.77;;;2.10;;
17921;SDS011;9086;50.966;3.144;2023-08-06T09:04:27;5.63;;;2.13;;
17921;SDS011;9086;50.966;3.144;2023-08-06T09:07:00;7.27;;;2.53;;
17921;SDS011;9086;50.966;3.144;2023-08-06T09:09:26;8.23;;;2.50;;
17921;SDS011;9086;50.966;3.144;2023-08-06T09:11:54;10.43;;;3.90;;
17921;SDS011;9086;50.966;3.144;2023-08-06T09:14:22;5.87;;;2.20;;
17921;SDS011;9086;50.966;3.144;2023-08-06T09:16:48;7.43;;;2.03;;
17921;SDS011;9086;50.966;3.144;2023-08-06T09:19:14;4.90;;;2.00;;
17921;SDS011;9086;50.966;3.144;2023-08-06T09:21:43;7.87;;;2.37;;
17921;SDS011;9086;50.966;3.144;2023-08-06T09:24:09;5.70;;;2.07;;
17921;SDS011;9086;50.966;3.144;2023-08-06T09:26:36;7.70;;;2.37;;
17921;SDS011;9086;50.966;3.144;2023-08-06T09:29:04;5.33;;;2.40;;
17921;SDS011;9086;50.966;3.144;2023-08-06T09:31:41;3.37;;;1.87;;
17921;SDS011;9086;50.966;3.144;2023-08-06T09:34:25;5.37;;;1.90;;
17921;SDS011;9086;50.966;3.144;2023-08-06T09:36:52;6.20;;;1.80;;
17921;SDS011;9086;50.966;3.144;2023-08-06T09:39:19;5.10;;;2.13;;
17921;SDS011;9086;50.966;3.144;2023-08-06T09:41:45;5.60;;;1.87;;
17921;SDS011;9086;50.966;3.144;2023-08-06T09:44:18;8.03;;;2.30;;
17921;SDS011;9086;50.966;3.144;2023-08-06T09:47:00;5.23;;;1.77;;
17921;SDS011;9086;50.966;3.144;2023-08-06T09:49:28;5.33;;;1.67;;
17921;SDS011;9086;50.966;3.144;2023-08-06T09:51:54;6.80;;;2.47;;
17921;SDS011;9086;50.966;3.144;2023-08-06T09:54:22;5.73;;;1.83;;
17921;SDS011;9086;50.966;3.144;2023-08-06T09:56:48;3.80;;;1.80;;
17921;SDS011;9086;50.966;3.144;2023-08-06T09:59:14;5.37;;;2.20;;
17921;SDS011;9086;50.966;3.144;2023-08-06T10:01:41;4.57;;;2.00;;
17921;SDS011;9086;50.966;3.144;2023-08-06T10:04:07;4.20;;;1.97;;
17921;SDS011;9086;50.966;3.144;2023-08-06T10:06:34;5.63;;;2.20;;
17921;SDS011;9086;50.966;3.144;2023-08-06T10:09:03;5.67;;;1.93;;
17921;SDS011;9086;50.966;3.144;2023-08-06T10:11:30;6.37;;;1.90;;
17921;SDS011;9086;50.966;3.144;2023-08-06T10:14:05;6.60;;;2.20;;
17921;SDS011;9086;50.966;3.144;2023-08-06T10:16:32;5.23;;;1.90;;
17921;SDS011;9086;50.966;3.144;2023-08-06T10:18:58;6.13;;;2.20;;
17921;SDS011;9086;50.966;3.144;2023-08-06T10:21:25;7.03;;;2.50;;
17921;SDS011;9086;50.966;3.144;2023-08-06T10:23:55;4.60;;;2.10;;
17921;SDS011;9086;50.966;3.144;2023-08-06T10:26:25;7.30;;;2.67;;
17921;SDS011;9086;50.966;3.144;2023-08-06T10:28:51;7.13;;;2.60;;
17921;SDS011;9086;50.966;3.144;2023-08-06T10:31:18;6.33;;;2.37;;
17921;SDS011;9086;50.966;3.144;2023-08-06T10:33:45;7.83;;;2.37;;
17921;SDS011;9086;50.966;3.144;2023-08-06T10:36:11;7.00;;;1.83;;
17921;SDS011;9086;50.966;3.144;2023-08-06T10:38:44;6.00;;;2.67;;
17921;SDS011;9086;50.966;3.144;2023-08-06T10:41:29;4.53;;;2.23;;
17921;SDS011;9086;50.966;3.144;2023-08-06T10:44:08;4.07;;;2.13;;
17921;SDS011;9086;50.966;3.144;2023-08-06T10:46:34;3.83;;;1.63;;
17921;SDS011;9086;50.966;3.144;2023-08-06T10:49:01;9.23;;;2.63;;
17921;SDS011;9086;50.966;3.144;2023-08-06T10:51:27;7.27;;;2.30;;
17921;SDS011;9086;50.966;3.144;2023-08-06T10:53:53;5.53;;;2.57;;
17921;SDS011;9086;50.966;3.144;2023-08-06T10:56:20;7.13;;;1.93;;
17921;SDS011;9086;50.966;3.144;2023-08-06T10:58:55;7.43;;;2.30;;
17921;SDS011;9086;50.966;3.144;2023-08-06T11:01:22;5.47;;;2.20;;
17921;SDS011;9086;50.966;3.144;2023-08-06T11:03:48;6.23;;;1.77;;
17921;SDS011;9086;50.966;3.144;2023-08-06T11:06:19;4.77;;;2.03;;
17921;SDS011;9086;50.966;3.144;2023-08-06T11:08:51;6.50;;;1.97;;
17921;SDS011;9086;50.966;3.144;2023-08-06T11:11:18;7.63;;;2.10;;
17921;SDS011;9086;50.966;3.144;2023-08-06T11:13:45;4.27;;;2.27;;
17921;SDS011;9086;50.966;3.144;2023-08-06T11:16:19;6.27;;;2.20;;
17921;SDS011;9086;50.966;3.144;2023-08-06T11:18:45;7.87;;;2.30;;
17921;SDS011;9086;50.966;3.144;2023-08-06T11:21:12;6.93;;;2.20;;
17921;SDS011;9086;50.966;3.144;2023-08-06T11:23:38;8.50;;;2.47;;
17921;SDS011;9086;50.966;3.144;2023-08-06T11:26:05;6.37;;;2.17;;
17921;SDS011;9086;50.966;3.144;2023-08-06T11:28:31;6.03;;;2.27;;
17921;SDS011;9086;50.966;3.144;2023-08-06T11:30:58;2.90;;;1.80;;
17921;SDS011;9086;50.966;3.144;2023-08-06T11:33:27;5.13;;;1.80;;
17921;SDS011;9086;50.966;3.144;2023-08-06T11:35:56;6.37;;;2.03;;
17921;SDS011;9086;50.966;3.144;2023-08-06T11:38:26;5.63;;;2.13;;
17921;SDS011;9086;50.966;3.144;2023-08-06T11:40:53;7.57;;;2.17;;
17921;SDS011;9086;50.966;3.144;2023-08-06T11:43:19;3.83;;;2.00;;
17921;SDS011;9086;50.966;3.144;2023-08-06T11:45:47;5.20;;;1.90;;
17921;SDS011;9086;50.966;3.144;2023-08-06T11:48:13;3.27;;;1.37;;
17921;SDS011;9086;50.966;3.144;2023-08-06T11:50:39;3.63;;;1.63;;
17921;SDS011;9086;50.966;3.144;2023-08-06T11:53:05;4.73;;;1.53;;
17921;SDS011;9086;50.966;3.144;2023-08-06T11:55:32;4.80;;;1.67;;
17921;SDS011;9086;50.966;3.144;2023-08-06T11:57:58;2.50;;;1.67;;
17921;SDS011;9086;50.966;3.144;2023-08-06T12:00:24;5.73;;;1.90;;
17921;SDS011;9086;50.966;3.144;2023-08-06T12:02:51;4.20;;;1.60;;
17921;SDS011;9086;50.966;3.144;2023-08-06T12:07:51;2.90;;;1.80;;
17921;SDS011;9086;50.966;3.144;2023-08-06T12:10:18;5.50;;;2.43;;
17921;SDS011;9086;50.966;3.144;2023-08-06T12:12:47;7.43;;;2.33;;
17921;SDS011;9086;50.966;3.144;2023-08-06T12:15:13;6.97;;;2.53;;
17921;SDS011;9086;50.966;3.144;2023-08-06T12:17:39;8.27;;;2.00;;
17921;SDS011;9086;50.966;3.144;2023-08-06T12:20:06;5.90;;;1.80;;
17921;SDS011;9086;50.966;3.144;2023-08-06T12:22:32;6.37;;;1.80;;
17921;SDS011;9086;50.966;3.144;2023-08-06T12:25:02;4.37;;;2.07;;
17921;SDS011;9086;50.966;3.144;2023-08-06T12:27:29;5.17;;;1.60;;
17921;SDS011;9086;50.966;3.144;2023-08-06T12:29:55;4.10;;;1.27;;
17921;SDS011;9086;50.966;3.144;2023-08-06T12:32:21;3.50;;;1.43;;
17921;SDS011;9086;50.966;3.144;2023-08-06T12:34:47;5.47;;;1.80;;
17921;SDS011;9086;50.966;3.144;2023-08-06T12:37:13;4.47;;;1.70;;
17921;SDS011;9086;50.966;3.144;2023-08-06T12:39:39;4.53;;;1.67;;
17921;SDS011;9086;50.966;3.144;2023-08-06T12:42:05;5.30;;;1.90;;
17921;SDS011;9086;50.966;3.144;2023-08-06T12:44:32;3.53;;;1.90;;
17921;SDS011;9086;50.966;3.144;2023-08-06T12:46:58;4.37;;;2.30;;
17921;SDS011;9086;50.966;3.144;2023-08-06T12:49:25;5.97;;;2.03;;
17921;SDS011;9086;50.966;3.144;2023-08-06T12:51:51;5.93;;;2.03;;
17921;SDS011;9086;50.966;3.144;2023-08-06T12:54:18;4.43;;;1.80;;
17921;SDS011;9086;50.966;3.144;2023-08-06T12:56:45;7.40;;;1.53;;
17921;SDS011;9086;50.966;3.144;2023-08-06T12:59:11;3.93;;;1.70;;
17921;SDS011;9086;50.966;3.144;2023-08-06T13:01:37;3.77;;;1.30;;
17921;SDS011;9086;50.966;3.144;2023-08-06T13:04:03;3.77;;;1.57;;
17921;SDS011;9086;50.966;3.144;2023-08-06T13:06:32;7.70;;;1.93;;
17921;SDS011;9086;50.966;3.144;2023-08-06T13:09:04;4.97;;;2.07;;
17921;SDS011;9086;50.966;3.144;2023-08-06T13:11:32;4.60;;;1.73;;
17921;SDS011;9086;50.966;3.144;2023-08-06T13:14:04;6.33;;;2.13;;
17921;SDS011;9086;50.966;3.144;2023-08-06T13:16:31;4.87;;;1.77;;
17921;SDS011;9086;50.966;3.144;2023-08-06T13:18:57;4.00;;;1.53;;
17921;SDS011;9086;50.966;3.144;2023-08-06T13:21:31;4.03;;;1.50;;
17921;SDS011;9086;50.966;3.144;2023-08-06T13:23:58;8.73;;;1.73;;
17921;SDS011;9086;50.966;3.144;2023-08-06T13:26:29;4.73;;;1.87;;
17921;SDS011;9086;50.966;3.144;2023-08-06T13:28:56;4.77;;;1.60;;
17921;SDS011;9086;50.966;3.144;2023-08-06T13:31:25;6.67;;;2.10;;
17921;SDS011;9086;50.966;3.144;2023-08-06T13:33:52;5.47;;;1.47;;
17921;SDS011;9086;50.966;3.144;2023-08-06T13:36:20;5.50;;;1.63;;
17921;SDS011;9086;50.966;3.144;2023-08-06T13:38:48;4.40;;;1.80;;
17921;SDS011;9086;50.966;3.144;2023-08-06T13:41:15;5.27;;;2.13;;
17921;SDS011;9086;50.966;3.144;2023-08-06T13:43:43;4.20;;;1.87;;
17921;SDS011;9086;50.966;3.144;2023-08-06T13:46:10;3.30;;;1.87;;
17921;SDS011;9086;50.966;3.144;2023-08-06T13:48:43;3.90;;;1.23;;
17921;SDS011;9086;50.966;3.144;2023-08-06T13:51:10;3.23;;;1.23;;
17921;SDS011;9086;50.966;3.144;2023-08-06T13:53:36;2.00;;;1.20;;
17921;SDS011;9086;50.966;3.144;2023-08-06T13:56:02;3.10;;;1.90;;
17921;SDS011;9086;50.966;3.144;2023-08-06T13:58:28;3.73;;;1.20;;
17921;SDS011;9086;50.966;3.144;2023-08-06T14:00:54;2.33;;;1.13;;
17921;SDS011;9086;50.966;3.144;2023-08-06T14:03:21;4.17;;;1.67;;
17921;SDS011;9086;50.966;3.144;2023-08-06T14:05:47;2.40;;;1.57;;
17921;SDS011;9086;50.966;3.144;2023-08-06T14:08:14;3.63;;;1.40;;
17921;SDS011;9086;50.966;3.144;2023-08-06T14:10:44;2.50;;;1.30;;
17921;SDS011;9086;50.966;3.144;2023-08-06T14:13:13;2.23;;;1.03;;
17921;SDS011;9086;50.966;3.144;2023-08-06T14:15:41;3.33;;;1.27;;
17921;SDS011;9086;50.966;3.144;2023-08-06T14:18:11;3.80;;;1.08;;
17921;SDS011;9086;50.966;3.144;2023-08-06T14:20:37;6.80;;;1.50;;
17921;SDS011;9086;50.966;3.144;2023-08-06T14:23:03;7.10;;;1.60;;
17921;SDS011;9086;50.966;3.144;2023-08-06T14:25:29;5.57;;;1.40;;
17921;SDS011;9086;50.966;3.144;2023-08-06T14:27:56;2.03;;;0.87;;
17921;SDS011;9086;50.966;3.144;2023-08-06T14:30:22;5.00;;;1.60;;
17921;SDS011;9086;50.966;3.144;2023-08-06T14:32:49;4.23;;;1.60;;
17921;SDS011;9086;50.966;3.144;2023-08-06T14:35:15;3.87;;;1.57;;
17921;SDS011;9086;50.966;3.144;2023-08-06T14:37:41;3.90;;;1.60;;
17921;SDS011;9086;50.966;3.144;2023-08-06T14:40:07;4.63;;;1.50;;
17921;SDS011;9086;50.966;3.144;2023-08-06T14:42:33;5.23;;;1.50;;
17921;SDS011;9086;50.966;3.144;2023-08-06T14:44:59;3.07;;;1.33;;
17921;SDS011;9086;50.966;3.144;2023-08-06T14:47:25;4.17;;;1.47;;
17921;SDS011;9086;50.966;3.144;2023-08-06T14:49:51;3.93;;;1.23;;
17921;SDS011;9086;50.966;3.144;2023-08-06T14:52:17;2.80;;;1.00;;
17921;SDS011;9086;50.966;3.144;2023-08-06T14:54:43;3.75;;;1.10;;
17921;SDS011;9086;50.966;3.144;2023-08-06T14:57:09;5.60;;;1.85;;
17921;SDS011;9086;50.966;3.144;2023-08-06T14:59:36;2.97;;;1.00;;